Estación de Petorca
Ultimos registro cada 15 minutos 59
| N° | Estación | Fecha / Hora | Temperatura | Humedad | Lluvia | Velocidad | Dirección | Radiación | Presion |
| 59 | Petorca | 03-05-2026 14:30 | 26,4 | 32,9 | 0 | 3 | 223 | 574,4 | 983,8 |
| 58 | Petorca | 03-05-2026 14:15 | 26,1 | 33,3 | 0 | 3 | 216 | 598,1 | 983,8 |
| 57 | Petorca | 03-05-2026 14:00 | 26,1 | 34 | 0 | 2,5 | 218 | 621,9 | 983,8 |
| 56 | Petorca | 03-05-2026 13:45 | 25,8 | 35,4 | 0 | 3 | 215 | 638,1 | 984 |
| 55 | Petorca | 03-05-2026 13:30 | 25,3 | 36,3 | 0 | 3 | 223 | 650,6 | 984,5 |
| 54 | Petorca | 03-05-2026 13:15 | 25,3 | 36,1 | 0 | 3,5 | 222 | 660,6 | 984,3 |
| 53 | Petorca | 03-05-2026 13:00 | 25,1 | 36,3 | 0 | 3,5 | 227 | 665,6 | 984,3 |
| 52 | Petorca | 03-05-2026 12:45 | 24,3 | 38,7 | 0 | 4 | 227 | 670,6 | 984,6 |
| 51 | Petorca | 03-05-2026 12:30 | 24,3 | 38,3 | 0 | 3 | 233 | 666,9 | 984,4 |
| 50 | Petorca | 03-05-2026 12:15 | 24,4 | 36,6 | 0 | 2,5 | 227 | 664,4 | 984,7 |
| 49 | Petorca | 03-05-2026 12:00 | 24,4 | 35,3 | 0 | 1,5 | 226 | 655,6 | 984,6 |
| 48 | Petorca | 03-05-2026 11:45 | 24,6 | 35,1 | 0 | 1 | 205 | 641,9 | 984,6 |
| 47 | Petorca | 03-05-2026 11:30 | 24,2 | 33,5 | 0 | 0,5 | 188 | 628,1 | 984,6 |
| 46 | Petorca | 03-05-2026 11:15 | 23,6 | 34 | 0 | 0 | 223 | 606,9 | 985,3 |
| 45 | Petorca | 03-05-2026 11:00 | 23,1 | 36 | 0 | 0 | 261 | 580,6 | 985,5 |
| 44 | Petorca | 03-05-2026 10:45 | 22,1 | 39,2 | 0 | 0 | 29 | 554,4 | 985,5 |
| 43 | Petorca | 03-05-2026 10:30 | 20,8 | 43,5 | 0 | 0 | 219 | 523,1 | 985,4 |
| 42 | Petorca | 03-05-2026 10:15 | 20,5 | 43,1 | 0 | 0 | 241 | 489,4 | 985,3 |
| 41 | Petorca | 03-05-2026 10:00 | 18,8 | 48,4 | 0 | 0 | 139 | 451,9 | 985,6 |
| 40 | Petorca | 03-05-2026 09:45 | 18,8 | 48,2 | 0 | 0 | 22 | 413,1 | 984,9 |
| 39 | Petorca | 03-05-2026 09:30 | 17 | 54 | 0 | 0 | 215 | 369,4 | 985,7 |
| 38 | Petorca | 03-05-2026 09:15 | 14,5 | 60,2 | 0 | 0 | 174 | 325,6 | 985,5 |
| 37 | Petorca | 03-05-2026 09:00 | 13,9 | 63,4 | 0 | 0 | 122 | 281,9 | 985,5 |
| 36 | Petorca | 03-05-2026 08:45 | 12,5 | 66,7 | 0 | 0 | 21 | 235,6 | 985,4 |
| 35 | Petorca | 03-05-2026 08:30 | 10,1 | 74,8 | 0 | 0 | 289 | 191,9 | 985,3 |
| 34 | Petorca | 03-05-2026 08:15 | 7,5 | 83,1 | 0 | 0 | 295 | 19,4 | 985,2 |
| 33 | Petorca | 03-05-2026 08:00 | 7,9 | 80,5 | 0 | 0 | 35 | 15,6 | 985,1 |
| 32 | Petorca | 03-05-2026 07:45 | 8,1 | 81,1 | 0 | 0 | 350 | 11,9 | 984,6 |
| 31 | Petorca | 03-05-2026 07:30 | 8,3 | 80,4 | 0 | 0,5 | 25 | 5,6 | 984,6 |
| 30 | Petorca | 03-05-2026 07:15 | 6,7 | 84,6 | 0 | 0 | 27 | 1,9 | 984,2 |
| 29 | Petorca | 03-05-2026 07:00 | 6,6 | 85,1 | 0 | 0 | 21 | 0,6 | 984,4 |
| 28 | Petorca | 03-05-2026 06:45 | 6,9 | 84,7 | 0 | 0 | 15 | 0,6 | 984 |
| 27 | Petorca | 03-05-2026 06:30 | 6,9 | 84,7 | 0 | 0 | 7 | 0,6 | 984,2 |
| 26 | Petorca | 03-05-2026 06:15 | 7,1 | 83,6 | 0 | 0 | 21 | 0,6 | 984,2 |
| 25 | Petorca | 03-05-2026 06:00 | 8,5 | 78,4 | 0 | 0 | 10 | 0,6 | 984,4 |
| 24 | Petorca | 03-05-2026 05:45 | 7,6 | 84,7 | 0 | 0 | 49 | 0,6 | 984,3 |
| 23 | Petorca | 03-05-2026 05:30 | 6,8 | 87,2 | 0 | 0,5 | 22 | 0,6 | 984,2 |
| 22 | Petorca | 03-05-2026 05:15 | 6,6 | 89 | 0 | 0 | 317 | 0,6 | 984,4 |
| 21 | Petorca | 03-05-2026 05:00 | 6,7 | 87,1 | 0 | 0 | 22 | 0,6 | 984,2 |
| 20 | Petorca | 03-05-2026 04:45 | 7 | 87,1 | 0 | 0 | 38 | 0,6 | 984,5 |
| 19 | Petorca | 03-05-2026 04:30 | 7,4 | 86 | 0 | 0 | 14 | 0,6 | 984,7 |
| 18 | Petorca | 03-05-2026 04:15 | 8,2 | 84,8 | 0 | 0 | 300 | 0,6 | 984,8 |
| 17 | Petorca | 03-05-2026 04:00 | 8,6 | 85 | 0 | 0 | 83 | 0,6 | 984,5 |
| 16 | Petorca | 03-05-2026 03:45 | 7,7 | 86,4 | 0 | 0,5 | 20 | 0,6 | 984,9 |
| 15 | Petorca | 03-05-2026 03:30 | 6,8 | 87,5 | 0 | 0 | 14 | 0,6 | 985,2 |
| 14 | Petorca | 03-05-2026 03:15 | 7,5 | 85,9 | 0 | 0 | 67 | 0,6 | 984,9 |
| 13 | Petorca | 03-05-2026 03:00 | 8,4 | 84,7 | 0 | 0 | 337 | 0,6 | 984,8 |
| 12 | Petorca | 03-05-2026 02:45 | 8,6 | 83,7 | 0 | 0 | 20 | 0,6 | 984,9 |
| 11 | Petorca | 03-05-2026 02:30 | 7,9 | 86,1 | 0 | 0 | 25 | 0,6 | 984,9 |
| 10 | Petorca | 03-05-2026 02:15 | 7,7 | 86,2 | 0 | 0 | 20 | 0,6 | 985 |
| 9 | Petorca | 03-05-2026 02:00 | 7,8 | 86,3 | 0 | 0 | 327 | 0,6 | 984,8 |
| 8 | Petorca | 03-05-2026 01:45 | 7,7 | 84,8 | 0 | 0 | 37 | 0,6 | 984,8 |
| 7 | Petorca | 03-05-2026 01:30 | 8 | 85,3 | 0 | 0 | 292 | 0,6 | 984,7 |
| 6 | Petorca | 03-05-2026 01:15 | 8,9 | 82,6 | 0 | 0 | 352 | 0,6 | 985,1 |
| 5 | Petorca | 03-05-2026 01:00 | 9,2 | 83,8 | 0 | 0 | 52 | 0,6 | 985 |
| 4 | Petorca | 03-05-2026 00:45 | 9,5 | 82,5 | 0 | 0 | 331 | 0,6 | 985,1 |
| 3 | Petorca | 03-05-2026 00:30 | 9,4 | 83,3 | 0 | 0 | 331 | 0,6 | 985,2 |
| 2 | Petorca | 03-05-2026 00:15 | 10,1 | 80,2 | 0 | 0 | 86 | 0,6 | 985,3 |
| 1 | Petorca | 03-05-2026 00:00 | 10,1 | 78,9 | 0 | 0 | 17 | 0,6 | 985,5 |